»·PEaware :: N2121Z KCMA-KSNA

N2121Z :: KCMA-KSNA

FLIGHT INFORMATION

Flight Status: Arrived
Operator: Privately registered:
United States
More flights under this callsign
Pilot: Stephen O. (32437)
Aircraft: CESSNA 172 SKYHAWK
(C172)
More flights by this aircraft type
Origin: KCMA Camarillo
United States
Destination: KSNA John Wayne-Orange Co
United States
More flights between these airports :: More routes between these airports
Route: IPIHO DCT LAX DCT FERMY
File this flight plan on PilotEdge
Remarks:
Altitude:
(Current/Filed)
5,500ft
Speed:
(Current/Filed)
115kts
Departed: 30-Nov-20 05:13 PM
Arrived: 30-Nov-20 07:22 PM
Distance/Time
Traveled:
2151nm/2:08
Distance/Time
To Go:
Arrived

Flight Plot

Page will automatically refresh every two minutes.

Flight plan parsing failed; only flown route is shown


Map Options




Map Legend


Flown Route
Filed Route
Departure Airport
Arrival Airport
Navaid (VOR, NDB)
Fix

Horizontal Profiles

Position Reports

Time Latitude Longitude Heading Altitude Ground
Speed
30-Nov-20 16:48 34.210642 -119.075754 87 81ft 0kts
30-Nov-20 16:49 34.210642 -119.075754 87 81ft 0kts
30-Nov-20 16:50 34.210642 -119.075754 87 81ft 0kts
30-Nov-20 16:51 34.210642 -119.075754 87 81ft 0kts
30-Nov-20 16:52 34.210642 -119.075754 87 81ft 0kts
30-Nov-20 16:53 34.210642 -119.075754 87 81ft 0kts
30-Nov-20 16:54 34.210642 -119.075754 87 81ft 0kts
30-Nov-20 16:55 34.210642 -119.075754 87 81ft 0kts
30-Nov-20 16:56 34.210642 -119.075754 87 81ft 0kts
30-Nov-20 16:57 34.210642 -119.075754 87 81ft 0kts
30-Nov-20 16:58 34.210641 -119.075738 92 81ft 1kts
30-Nov-20 16:59 34.210816 -119.078578 267 79ft 17kts
30-Nov-20 17:00 34.210888 -119.083876 269 80ft 15kts
30-Nov-20 17:01 34.212708 -119.084175 307 79ft 0kts
30-Nov-20 17:02 34.212708 -119.084175 307 79ft 0kts
30-Nov-20 17:03 34.212708 -119.084175 307 79ft 0kts
30-Nov-20 17:04 34.212708 -119.084175 307 79ft 0kts
30-Nov-20 17:05 34.212708 -119.084175 307 79ft 0kts
30-Nov-20 17:06 34.212708 -119.084175 307 79ft 0kts
30-Nov-20 17:07 34.212708 -119.084175 307 79ft 0kts
30-Nov-20 17:08 34.212708 -119.084175 307 79ft 0kts
30-Nov-20 17:09 34.212708 -119.084175 307 79ft 0kts
30-Nov-20 17:10 34.212708 -119.084175 307 79ft 0kts
30-Nov-20 17:11 34.212708 -119.084175 307 79ft 0kts
30-Nov-20 17:12 34.213662 -119.089791 268 122ft 63kts
30-Nov-20 17:13 34.213170 -119.114375 265 856ft 75kts
30-Nov-20 17:14 34.210455 -119.139404 260 1629ft 76kts
30-Nov-20 17:15 34.207974 -119.166043 271 2333ft 83kts
30-Nov-20 17:16 34.197132 -119.168515 88 2982ft 89kts
30-Nov-20 17:17 34.199773 -119.143818 87 3826ft 61kts
30-Nov-20 17:18 34.198751 -119.123618 93 4212ft 73kts
30-Nov-20 17:19 34.196470 -119.092867 94 4521ft 102kts
30-Nov-20 17:20 34.194001 -119.058997 93 4806ft 100kts
30-Nov-20 17:21 34.199650 -119.026947 64 5102ft 98kts
30-Nov-20 17:22 34.211923 -118.997410 62 5402ft 98kts
30-Nov-20 17:23 34.217320 -118.963554 90 5498ft 110kts
30-Nov-20 17:24 34.216397 -118.925795 86 5497ft 113kts
30-Nov-20 17:25 34.218181 -118.888033 87 5499ft 112kts
30-Nov-20 17:26 34.218618 -118.850179 86 5499ft 112kts
30-Nov-20 17:27 34.219475 -118.812434 87 5499ft 112kts
30-Nov-20 17:28 34.220152 -118.774494 87 5496ft 114kts
30-Nov-20 17:29 34.220875 -118.736458 86 5493ft 111kts
30-Nov-20 17:30 34.221557 -118.698880 87 5498ft 112kts
30-Nov-20 17:31 34.222226 -118.661124 86 5501ft 113kts
30-Nov-20 17:32 34.222896 -118.623228 87 5499ft 112kts
30-Nov-20 17:33 34.218381 -118.587345 135 5498ft 115kts
30-Nov-20 17:34 34.188396 -118.573098 161 5499ft 117kts
30-Nov-20 17:35 34.158330 -118.557848 151 5501ft 117kts
30-Nov-20 17:36 34.128655 -118.540999 155 5499ft 118kts
30-Nov-20 17:37 34.099017 -118.524468 153 5494ft 116kts
30-Nov-20 17:38 34.069469 -118.508001 154 5502ft 118kts
30-Nov-20 17:39 34.039742 -118.491385 154 5499ft 117kts
30-Nov-20 17:40 34.010517 -118.475099 154 5499ft 117kts
30-Nov-20 17:41 33.981298 -118.458816 154 5499ft 117kts
30-Nov-20 17:42 33.953001 -118.443057 154 5499ft 118kts
30-Nov-20 18:06 34.210642 -119.075754 87 81ft 0kts
30-Nov-20 18:07 34.210642 -119.075754 87 81ft 0kts
30-Nov-20 18:17 34.210642 -119.075754 87 81ft 0kts
30-Nov-20 18:18 34.210642 -119.075754 87 81ft 0kts
30-Nov-20 18:19 34.210642 -119.075754 87 81ft 0kts
30-Nov-20 18:20 34.210642 -119.075754 87 81ft 0kts
30-Nov-20 18:21 34.210642 -119.075755 87 81ft 0kts
30-Nov-20 18:22 34.210642 -119.075755 87 81ft 0kts
30-Nov-20 18:22 34.210642 -119.075755 87 81ft 0kts
30-Nov-20 18:24 34.210642 -119.075755 87 81ft 0kts
30-Nov-20 18:24 34.210642 -119.075755 87 81ft 0kts
30-Nov-20 18:26 34.210642 -119.075755 87 81ft 0kts
30-Nov-20 18:26 34.210642 -119.075755 87 81ft 0kts
30-Nov-20 18:28 34.210852 -119.081348 272 78ft 25kts
30-Nov-20 18:28 34.212552 -119.084128 358 79ft 16kts
30-Nov-20 18:29 34.212705 -119.084192 306 79ft 0kts
30-Nov-20 18:30 34.212864 -119.084514 336 78ft 2kts
30-Nov-20 18:31 34.212865 -119.084515 337 78ft 0kts
30-Nov-20 18:32 34.213323 -119.084608 344 79ft 19kts
30-Nov-20 18:33 34.213897 -119.107841 282 500ft 89kts
30-Nov-20 18:34 34.225670 -119.107605 70 1347ft 83kts
30-Nov-20 18:35 34.232768 -119.080020 98 2139ft 88kts
30-Nov-20 18:36 34.218474 -119.055886 127 2891ft 89kts
30-Nov-20 18:37 34.213954 -119.028463 80 3603ft 84kts
30-Nov-20 18:38 34.216061 -119.000497 86 4276ft 83kts
30-Nov-20 18:39 34.216046 -118.972582 87 4921ft 83kts
30-Nov-20 18:40 34.216769 -118.944719 87 5500ft 82kts
30-Nov-20 18:41 34.217796 -118.912030 75 5716ft 110kts
30-Nov-20 18:42 34.226786 -118.874627 101 5554ft 127kts
30-Nov-20 18:43 34.218645 -118.837568 95 5509ft 107kts
30-Nov-20 18:44 34.219608 -118.802384 84 5509ft 103kts
30-Nov-20 18:45 34.220076 -118.765509 88 5506ft 117kts
30-Nov-20 18:46 34.220816 -118.725954 86 5500ft 117kts
30-Nov-20 18:47 34.221437 -118.686193 87 5499ft 119kts
30-Nov-20 18:48 34.222149 -118.646013 87 5498ft 120kts
30-Nov-20 18:49 34.222812 -118.605577 87 5498ft 120kts
30-Nov-20 18:50 34.217443 -118.567006 137 5500ft 124kts
30-Nov-20 18:51 34.185039 -118.553418 164 5500ft 122kts
30-Nov-20 18:52 34.153092 -118.539840 153 5500ft 119kts
30-Nov-20 18:53 34.122595 -118.524485 157 5497ft 118kts
30-Nov-20 18:54 34.092216 -118.509726 156 5498ft 117kts
30-Nov-20 18:55 34.061919 -118.494899 157 5498ft 118kts
30-Nov-20 18:56 34.031701 -118.480108 157 5499ft 117kts
30-Nov-20 18:58 33.996846 -118.463094 157 5500ft 116kts
30-Nov-20 18:58 33.971813 -118.450868 157 5500ft 116kts
30-Nov-20 18:59 33.941752 -118.436205 157 5500ft 117kts
30-Nov-20 19:00 33.915281 -118.414168 134 5500ft 116kts
30-Nov-20 19:01 33.891737 -118.387141 139 5500ft 117kts
30-Nov-20 19:02 33.866962 -118.361586 137 5500ft 117kts
30-Nov-20 19:03 33.842727 -118.335536 138 5499ft 117kts
30-Nov-20 19:04 33.818547 -118.309875 137 5493ft 117kts
30-Nov-20 19:05 33.794089 -118.283844 138 5491ft 117kts
30-Nov-20 19:06 33.769667 -118.257894 138 5490ft 117kts
30-Nov-20 19:07 33.745148 -118.231861 138 5490ft 117kts
30-Nov-20 19:08 33.728036 -118.199959 99 5491ft 116kts
30-Nov-20 19:09 33.724267 -118.161396 96 5491ft 116kts
30-Nov-20 19:10 33.717731 -118.123531 100 5489ft 107kts
30-Nov-20 19:11 33.712210 -118.088009 99 5017ft 113kts
30-Nov-20 19:12 33.706597 -118.054378 99 4401ft 85kts
30-Nov-20 19:13 33.702568 -118.029038 99 3796ft 71kts
30-Nov-20 19:14 33.698955 -118.006984 99 3197ft 63kts
30-Nov-20 19:15 33.695723 -117.987368 98 2593ft 56kts
30-Nov-20 19:16 33.692165 -117.962098 104 2126ft 103kts
30-Nov-20 19:17 33.686410 -117.932377 95 1554ft 80kts
30-Nov-20 19:18 33.684003 -117.911282 80 1459ft 57kts
30-Nov-20 19:19 33.688627 -117.890171 83 1531ft 70kts
30-Nov-20 19:20 33.687390 -117.864388 137 847ft 86kts
30-Nov-20 19:21 33.670869 -117.871869 208 56ft 39kts
30-Nov-20 19:22 33.669294 -117.871771 129 59ft 0kts
30-Nov-20 19:23 33.669068 -117.871334 97 58ft 0kts
30-Nov-20 19:24 33.669066 -117.871316 93 58ft 0kts
30-Nov-20 19:25 33.669761 -117.870282 42 55ft 17kts
30-Nov-20 19:26 33.671814 -117.867695 78 53ft 0kts
30-Nov-20 19:27 33.671814 -117.867695 78 53ft 0kts
30-Nov-20 19:28 33.671814 -117.867695 78 53ft 0kts
30-Nov-20 19:29 33.671814 -117.867695 78 53ft 0kts
30-Nov-20 19:30 33.671814 -117.867695 78 53ft 0kts
30-Nov-20 19:31 33.671814 -117.867695 78 53ft 0kts
30-Nov-20 19:32 33.671814 -117.867695 78 53ft 0kts
30-Nov-20 19:33 33.671814 -117.867695 78 53ft 0kts
30-Nov-20 19:34 0.000408 0.013975 0 3ft 0kts
30-Nov-20 19:35 41.506547 -74.088239 348 464ft 0kts

Navigation Log

Ident Type
Flight plan parsing failed, navigation log unavailable